sensor_id;sensor_type;location;lat;lon;timestamp;pressure;altitude;pressure_sealevel;temperature;humidity
45888;BME280;31595;51.418;7.572;2023-04-01T00:00:13;98085.31;;;10.64;85.28
45888;BME280;31595;51.418;7.572;2023-04-01T00:02:40;98094.19;;;10.69;85.69
45888;BME280;31595;51.418;7.572;2023-04-01T00:05:13;98087.69;;;10.62;85.84
45888;BME280;31595;51.418;7.572;2023-04-01T00:07:42;98097.44;;;10.52;87.07
45888;BME280;31595;51.418;7.572;2023-04-01T00:10:11;98083.88;;;10.47;87.92
45888;BME280;31595;51.418;7.572;2023-04-01T00:12:39;98086.66;;;10.47;89.24
45888;BME280;31595;51.418;7.572;2023-04-01T00:15:10;98072.91;;;10.34;90.19
45888;BME280;31595;51.418;7.572;2023-04-01T00:17:37;98087.63;;;10.35;90.12
45888;BME280;31595;51.418;7.572;2023-04-01T00:20:07;98089.16;;;10.09;89.31
45888;BME280;31595;51.418;7.572;2023-04-01T00:22:35;98076.25;;;10.21;89.98
45888;BME280;31595;51.418;7.572;2023-04-01T00:25:03;98085.19;;;10.30;89.88
45888;BME280;31595;51.418;7.572;2023-04-01T00:27:30;98083.25;;;10.34;89.99
45888;BME280;31595;51.418;7.572;2023-04-01T00:29:58;98076.22;;;10.40;89.52
45888;BME280;31595;51.418;7.572;2023-04-01T00:32:26;98076.03;;;10.29;88.62
45888;BME280;31595;51.418;7.572;2023-04-01T00:34:54;98083.31;;;10.38;88.72
45888;BME280;31595;51.418;7.572;2023-04-01T00:37:22;98069.03;;;10.39;90.07
45888;BME280;31595;51.418;7.572;2023-04-01T00:39:50;98082.94;;;10.39;89.65
45888;BME280;31595;51.418;7.572;2023-04-01T00:42:17;98078.13;;;10.36;90.39
45888;BME280;31595;51.418;7.572;2023-04-01T00:44:47;98071.75;;;10.35;89.93
45888;BME280;31595;51.418;7.572;2023-04-01T00:47:15;98084.13;;;10.38;89.05
45888;BME280;31595;51.418;7.572;2023-04-01T00:49:46;98079.00;;;10.40;89.07
45888;BME280;31595;51.418;7.572;2023-04-01T00:52:20;98078.56;;;10.38;87.65
45888;BME280;31595;51.418;7.572;2023-04-01T00:54:52;98084.81;;;10.31;88.08
45888;BME280;31595;51.418;7.572;2023-04-01T00:57:23;98076.22;;;10.40;87.70
45888;BME280;31595;51.418;7.572;2023-04-01T00:59:54;98079.59;;;10.30;87.91
45888;BME280;31595;51.418;7.572;2023-04-01T01:02:22;98079.94;;;10.28;89.17
45888;BME280;31595;51.418;7.572;2023-04-01T01:04:51;98074.28;;;10.21;89.68
45888;BME280;31595;51.418;7.572;2023-04-01T01:07:26;98072.38;;;10.29;88.84
45888;BME280;31595;51.418;7.572;2023-04-01T01:10:02;98079.59;;;10.30;88.94
45888;BME280;31595;51.418;7.572;2023-04-01T01:12:43;98065.69;;;10.30;88.39
45888;BME280;31595;51.418;7.572;2023-04-01T01:15:17;98070.47;;;10.29;88.50
45888;BME280;31595;51.418;7.572;2023-04-01T01:17:52;98056.97;;;10.31;87.70
45888;BME280;31595;51.418;7.572;2023-04-01T01:20:47;98067.28;;;10.31;87.75
45888;BME280;31595;51.418;7.572;2023-04-01T01:23:55;98056.28;;;10.38;88.36
45888;BME280;31595;51.418;7.572;2023-04-01T01:26:53;98066.81;;;10.29;87.51
45888;BME280;31595;51.418;7.572;2023-04-01T01:29:42;98066.41;;;10.27;87.44
45888;BME280;31595;51.418;7.572;2023-04-01T01:32:19;98056.59;;;10.33;87.46
45888;BME280;31595;51.418;7.572;2023-04-01T01:37:24;98047.34;;;10.29;86.75
45888;BME280;31595;51.418;7.572;2023-04-01T01:39:56;98050.13;;;10.29;86.71
45888;BME280;31595;51.418;7.572;2023-04-01T01:42:27;98048.53;;;10.28;86.96
45888;BME280;31595;51.418;7.572;2023-04-01T01:44:57;98065.00;;;10.36;86.86
45888;BME280;31595;51.418;7.572;2023-04-01T01:47:28;98059.06;;;10.38;86.44
45888;BME280;31595;51.418;7.572;2023-04-01T01:49:56;98043.97;;;10.39;86.62
45888;BME280;31595;51.418;7.572;2023-04-01T01:52:26;98044.72;;;10.36;87.06
45888;BME280;31595;51.418;7.572;2023-04-01T01:54:56;98049.06;;;10.33;87.50
45888;BME280;31595;51.418;7.572;2023-04-01T01:57:26;98039.66;;;10.42;87.52
45888;BME280;31595;51.418;7.572;2023-04-01T01:59:59;98055.88;;;10.36;87.00
45888;BME280;31595;51.418;7.572;2023-04-01T02:02:29;98054.31;;;10.39;87.97
45888;BME280;31595;51.418;7.572;2023-04-01T02:04:58;98044.72;;;10.36;87.05
45888;BME280;31595;51.418;7.572;2023-04-01T02:07:30;98041.53;;;10.34;86.84
45888;BME280;31595;51.418;7.572;2023-04-01T02:09:59;98055.28;;;10.27;87.36
45888;BME280;31595;51.418;7.572;2023-04-01T02:12:27;98047.34;;;10.29;87.14
45888;BME280;31595;51.418;7.572;2023-04-01T02:14:58;98055.59;;;10.22;88.09
45888;BME280;31595;51.418;7.572;2023-04-01T02:17:29;98049.66;;;10.23;88.07
45888;BME280;31595;51.418;7.572;2023-04-01T02:19:59;98056.44;;;10.26;88.61
45888;BME280;31595;51.418;7.572;2023-04-01T02:22:29;98055.91;;;10.16;87.86
45888;BME280;31595;51.418;7.572;2023-04-01T02:25:00;98057.25;;;10.03;87.75
45888;BME280;31595;51.418;7.572;2023-04-01T02:27:30;98061.50;;;9.97;89.21
45888;BME280;31595;51.418;7.572;2023-04-01T02:29:57;98071.75;;;10.12;88.46
45888;BME280;31595;51.418;7.572;2023-04-01T02:32:27;98059.84;;;10.15;87.84
45888;BME280;31595;51.418;7.572;2023-04-01T02:34:54;98060.59;;;10.12;88.57
45888;BME280;31595;51.418;7.572;2023-04-01T02:37:23;98058.31;;;10.18;88.77
45888;BME280;31595;51.418;7.572;2023-04-01T02:39:52;98052.63;;;10.11;88.48
